sensor_id;sensor_type;location;lat;lon;timestamp;pressure;altitude;pressure_sealevel;temperature;humidity
64889;BME280;51386;53.082;8.816;2022-08-04T00:00:29;101340.16;;;27.87;53.46
64889;BME280;51386;53.082;8.816;2022-08-04T00:03:11;101344.22;;;27.84;53.42
64889;BME280;51386;53.082;8.816;2022-08-04T00:05:53;101349.66;;;27.84;53.03
64889;BME280;51386;53.082;8.816;2022-08-04T00:08:39;101345.34;;;27.83;53.26
64889;BME280;51386;53.082;8.816;2022-08-04T00:11:10;101341.00;;;27.87;53.19
64889;BME280;51386;53.082;8.816;2022-08-04T00:13:49;101336.41;;;27.83;53.10
64889;BME280;51386;53.082;8.816;2022-08-04T00:16:35;101335.59;;;27.82;52.82
64889;BME280;51386;53.082;8.816;2022-08-04T00:19:11;101336.69;;;27.81;53.11
64889;BME280;51386;53.082;8.816;2022-08-04T00:21:47;101333.16;;;27.81;53.77
64889;BME280;51386;53.082;8.816;2022-08-04T00:24:19;101332.06;;;27.82;53.62
64889;BME280;51386;53.082;8.816;2022-08-04T00:26:52;101328.56;;;27.81;53.26
64889;BME280;51386;53.082;8.816;2022-08-04T00:29:20;101329.63;;;27.80;53.40
64889;BME280;51386;53.082;8.816;2022-08-04T00:31:49;101326.41;;;27.78;53.93
64889;BME280;51386;53.082;8.816;2022-08-04T00:34:26;101331.81;;;27.78;53.57
64889;BME280;51386;53.082;8.816;2022-08-04T00:36:57;101323.16;;;27.76;53.63
64889;BME280;51386;53.082;8.816;2022-08-04T00:39:25;101332.34;;;27.75;53.51
64889;BME280;51386;53.082;8.816;2022-08-04T00:42:33;101323.72;;;27.63;53.88
64889;BME280;51386;53.082;8.816;2022-08-04T00:45:33;101333.19;;;27.66;53.95
64889;BME280;51386;53.082;8.816;2022-08-04T00:48:46;101327.53;;;27.62;53.63
64889;BME280;51386;53.082;8.816;2022-08-04T00:51:30;101330.75;;;27.59;54.07
64889;BME280;51386;53.082;8.816;2022-08-04T00:54:14;101322.09;;;27.57;54.04
64889;BME280;51386;53.082;8.816;2022-08-04T00:57:13;101325.34;;;27.49;54.19
64889;BME280;51386;53.082;8.816;2022-08-04T01:00:07;101314.00;;;27.47;54.26
64889;BME280;51386;53.082;8.816;2022-08-04T01:03:00;101314.53;;;27.44;54.41
64889;BME280;51386;53.082;8.816;2022-08-04T01:05:54;101310.22;;;27.43;54.27
64889;BME280;51386;53.082;8.816;2022-08-04T01:08:52;101309.66;;;27.41;54.15
64889;BME280;51386;53.082;8.816;2022-08-04T01:11:43;101309.41;;;27.42;53.83
64889;BME280;51386;53.082;8.816;2022-08-04T01:15:04;101306.97;;;27.36;54.55
64889;BME280;51386;53.082;8.816;2022-08-04T01:17:44;101306.41;;;27.39;54.39
64889;BME280;51386;53.082;8.816;2022-08-04T01:20:20;101305.06;;;27.41;54.36
64889;BME280;51386;53.082;8.816;2022-08-04T01:23:35;101300.44;;;27.32;54.93
64889;BME280;51386;53.082;8.816;2022-08-04T01:26:49;101297.22;;;27.30;54.37
64889;BME280;51386;53.082;8.816;2022-08-04T01:29:33;101302.34;;;27.36;54.56
64889;BME280;51386;53.082;8.816;2022-08-04T01:32:19;101295.59;;;27.39;54.72
64889;BME280;51386;53.082;8.816;2022-08-04T01:35:00;101301.28;;;27.42;54.50
64889;BME280;51386;53.082;8.816;2022-08-04T01:37:47;101295.34;;;27.40;54.94
64889;BME280;51386;53.082;8.816;2022-08-04T01:40:16;101297.78;;;27.47;54.58
64889;BME280;51386;53.082;8.816;2022-08-04T01:42:44;101291.28;;;27.48;54.55
64889;BME280;51386;53.082;8.816;2022-08-04T01:45:16;101289.66;;;27.47;54.17
64889;BME280;51386;53.082;8.816;2022-08-04T01:47:50;101288.59;;;27.43;54.25
64889;BME280;51386;53.082;8.816;2022-08-04T01:50:18;101288.59;;;27.43;54.29
64889;BME280;51386;53.082;8.816;2022-08-04T01:52:46;101289.94;;;27.40;54.19
64889;BME280;51386;53.082;8.816;2022-08-04T01:55:18;101292.34;;;27.37;54.33
64889;BME280;51386;53.082;8.816;2022-08-04T01:57:49;101290.72;;;27.36;54.26
64889;BME280;51386;53.082;8.816;2022-08-04T02:00:21;101283.97;;;27.33;54.70
64889;BME280;51386;53.082;8.816;2022-08-04T02:02:49;101280.44;;;27.33;54.36
64889;BME280;51386;53.082;8.816;2022-08-04T02:05:20;101285.84;;;27.33;54.60
64889;BME280;51386;53.082;8.816;2022-08-04T02:08:10;101275.31;;;27.26;54.73
64889;BME280;51386;53.082;8.816;2022-08-04T02:10:59;101276.94;;;27.27;54.69
64889;BME280;51386;53.082;8.816;2022-08-04T02:13:37;101275.56;;;27.30;54.48
64889;BME280;51386;53.082;8.816;2022-08-04T02:16:15;101275.03;;;27.28;54.88
64889;BME280;51386;53.082;8.816;2022-08-04T02:18:59;101274.50;;;27.26;55.11
64889;BME280;51386;53.082;8.816;2022-08-04T02:21:30;101265.84;;;27.24;54.93
64889;BME280;51386;53.082;8.816;2022-08-04T02:24:15;101256.66;;;27.15;55.38
64889;BME280;51386;53.082;8.816;2022-08-04T02:26:48;101260.44;;;27.14;55.29
64889;BME280;51386;53.082;8.816;2022-08-04T02:29:24;101258.81;;;27.13;55.55
64889;BME280;51386;53.082;8.816;2022-08-04T02:32:04;101255.56;;;27.11;55.41
64889;BME280;51386;53.082;8.816;2022-08-04T02:34:40;101255.31;;;27.07;55.83
64889;BME280;51386;53.082;8.816;2022-08-04T02:37:11;101253.69;;;27.06;55.97
64889;BME280;51386;53.082;8.816;2022-08-04T02:39:44;101251.53;;;27.03;55.47
64889;BME280;51386;53.082;8.816;2022-08-04T02:42:16;101257.22;;;27.02;56.01
64889;BME280;51386;53.082;8.816;2022-08-04T02:44:49;101255.31;;;26.97;55.88
64889;BME280;51386;53.082;8.816;2022-08-04T02:47:20;101249.63;;;26.94;55.76
64889;BME280;51386;53.082;8.816;2022-08-04T02:49:51;101250.19;;;26.91;56.30
64889;BME280;51386;53.082;8.816;2022-08-04T02:52:19;101249.09;;;26.86;56.21
64889;BME280;51386;53.082;8.816;2022-08-04T02:54:54;101244.78;;;26.80;55.95
64889;BME280;51386;53.082;8.816;2022-08-04T02:57:26;101246.41;;;26.76;56.67
64889;BME280;51386;53.082;8.816;2022-08-04T03:00:14;101246.88;;;26.68;56.69
64889;BME280;51386;53.082;8.816;2022-08-04T03:02:55;101249.59;;;26.68;56.58
64889;BME280;51386;53.082;8.816;2022-08-04T03:05:31;101246.06;;;26.68;56.53
64889;BME280;51386;53.082;8.816;2022-08-04T03:08:59;101241.47;;;26.58;56.87
64889;BME280;51386;53.082;8.816;2022-08-04T03:12:02;101235.81;;;26.60;56.79
64889;BME280;51386;53.082;8.816;2022-08-04T03:15:14;101229.59;;;26.59;57.13
64889;BME280;51386;53.082;8.816;2022-08-04T03:18:35;101233.91;;;26.60;56.63
64889;BME280;51386;53.082;8.816;2022-08-04T03:21:44;101235.81;;;26.60;56.37
64889;BME280;51386;53.082;8.816;2022-08-04T03:28:37;101235.50;;;26.51;56.84
64889;BME280;51386;53.082;8.816;2022-08-04T03:31:41;101230.13;;;26.51;57.57
64889;BME280;51386;53.082;8.816;2022-08-04T03:34:38;101229.59;;;26.54;56.99
64889;BME280;51386;53.082;8.816;2022-08-04T03:37:50;101226.88;;;26.49;57.22
64889;BME280;51386;53.082;8.816;2022-08-04T03:41:05;101223.09;;;26.50;57.14
64889;BME280;51386;53.082;8.816;2022-08-04T03:48:12;101222.53;;;26.48;56.88
64889;BME280;51386;53.082;8.816;2022-08-04T03:51:28;101222.28;;;26.50;57.04
64889;BME280;51386;53.082;8.816;2022-08-04T03:55:16;101224.69;;;26.46;57.21
64889;BME280;51386;53.082;8.816;2022-08-04T03:58:31;101226.03;;;26.44;57.72
64889;BME280;51386;53.082;8.816;2022-08-04T04:01:22;101224.69;;;26.46;58.10
64889;BME280;51386;53.082;8.816;2022-08-04T04:04:39;101225.25;;;26.38;57.95
64889;BME280;51386;53.082;8.816;2022-08-04T04:07:47;101217.66;;;26.30;58.16
64889;BME280;51386;53.082;8.816;2022-08-04T04:10:58;101227.38;;;26.31;57.95
64889;BME280;51386;53.082;8.816;2022-08-04T04:14:00;101218.19;;;26.27;58.55
64889;BME280;51386;53.082;8.816;2022-08-04T04:17:06;101214.94;;;26.25;57.90
64889;BME280;51386;53.082;8.816;2022-08-04T04:23:00;101213.88;;;26.31;58.29
64889;BME280;51386;53.082;8.816;2022-08-04T04:25:54;101218.72;;;26.34;58.42
64889;BME280;51386;53.082;8.816;2022-08-04T04:28:52;101219.84;;;26.38;58.05
64889;BME280;51386;53.082;8.816;2022-08-04T04:31:52;101217.16;;;26.43;57.90
64889;BME280;51386;53.082;8.816;2022-08-04T04:34:44;101212.84;;;26.47;57.66
64889;BME280;51386;53.082;8.816;2022-08-04T04:37:50;101210.66;;;26.49;57.29
64889;BME280;51386;53.082;8.816;2022-08-04T04:40:33;101218.50;;;26.56;57.78
64889;BME280;51386;53.082;8.816;2022-08-04T04:43:55;101215.81;;;26.56;57.17
64889;BME280;51386;53.082;8.816;2022-08-04T04:46:37;101219.06;;;26.68;57.04
64889;BME280;51386;53.082;8.816;2022-08-04T04:49:19;101218.78;;;26.74;57.13
64889;BME280;51386;53.082;8.816;2022-08-04T04:51:57;101217.75;;;26.80;56.93
64889;BME280;51386;53.082;8.816;2022-08-04T04:54:33;101211.81;;;26.83;56.45
64889;BME280;51386;53.082;8.816;2022-08-04T04:57:10;101210.72;;;26.90;56.35
64889;BME280;51386;53.082;8.816;2022-08-04T04:59:48;101203.69;;;26.99;56.22
64889;BME280;51386;53.082;8.816;2022-08-04T05:02:50;101203.97;;;26.97;56.55
64889;BME280;51386;53.082;8.816;2022-08-04T05:06:03;101210.72;;;27.00;55.70
64889;BME280;51386;53.082;8.816;2022-08-04T05:09:02;101201.25;;;27.07;55.57
64889;BME280;51386;53.082;8.816;2022-08-04T05:15:21;101196.63;;;27.23;55.38
64889;BME280;51386;53.082;8.816;2022-08-04T05:17:56;101199.84;;;27.30;55.17
64889;BME280;51386;53.082;8.816;2022-08-04T05:20:32;101195.50;;;27.34;55.02
64889;BME280;51386;53.082;8.816;2022-08-04T05:23:07;101192.81;;;27.34;54.72
64889;BME280;51386;53.082;8.816;2022-08-04T05:25:43;101191.72;;;27.35;54.53
64889;BME280;51386;53.082;8.816;2022-08-04T05:28:35;101190.66;;;27.31;54.40
64889;BME280;51386;53.082;8.816;2022-08-04T05:31:10;101190.66;;;27.31;54.44
64889;BME280;51386;53.082;8.816;2022-08-04T05:33:46;101183.09;;;27.33;54.52
64889;BME280;51386;53.082;8.816;2022-08-04T05:36:18;101184.72;;;27.39;54.76
64889;BME280;51386;53.082;8.816;2022-08-04T05:39:11;101186.34;;;27.45;54.27
64889;BME280;51386;53.082;8.816;2022-08-04T05:41:43;101183.03;;;27.53;54.35
64889;BME280;51386;53.082;8.816;2022-08-04T05:44:25;101181.94;;;27.59;54.07
64889;BME280;51386;53.082;8.816;2022-08-04T05:46:56;101181.91;;;27.69;53.86
64889;BME280;51386;53.082;8.816;2022-08-04T05:49:27;101186.75;;;27.77;53.77
64889;BME280;51386;53.082;8.816;2022-08-04T05:51:59;101177.22;;;27.85;53.76
64889;BME280;51386;53.082;8.816;2022-08-04T05:54:28;101180.44;;;27.92;53.20
64889;BME280;51386;53.082;8.816;2022-08-04T05:56:58;101172.56;;;28.00;53.21
64889;BME280;51386;53.082;8.816;2022-08-04T05:59:30;101174.69;;;28.08;53.11
64889;BME280;51386;53.082;8.816;2022-08-04T06:02:00;101175.72;;;28.17;53.00
64889;BME280;51386;53.082;8.816;2022-08-04T06:04:34;101171.91;;;28.24;52.87
64889;BME280;51386;53.082;8.816;2022-08-04T06:07:04;101172.66;;;28.29;52.83
64889;BME280;51386;53.082;8.816;2022-08-04T06:09:31;101174.00;;;28.32;52.47
64889;BME280;51386;53.082;8.816;2022-08-04T06:12:03;101166.41;;;28.34;52.52
64889;BME280;51386;53.082;8.816;2022-08-04T06:14:39;101169.91;;;28.34;52.60
64889;BME280;51386;53.082;8.816;2022-08-04T06:17:10;101163.91;;;28.42;52.28
64889;BME280;51386;53.082;8.816;2022-08-04T06:20:01;101166.84;;;28.46;52.31
64889;BME280;51386;53.082;8.816;2022-08-04T06:22:53;101172.50;;;28.54;52.68
64889;BME280;51386;53.082;8.816;2022-08-04T06:25:25;101170.81;;;28.63;51.65
64889;BME280;51386;53.082;8.816;2022-08-04T06:27:55;101172.16;;;28.66;51.59
64889;BME280;51386;53.082;8.816;2022-08-04T06:30:27;101175.09;;;28.69;51.44
64889;BME280;51386;53.082;8.816;2022-08-04T06:32:57;101172.59;;;28.78;51.12
64889;BME280;51386;53.082;8.816;2022-08-04T06:35:32;101170.88;;;28.87;50.91
64889;BME280;51386;53.082;8.816;2022-08-04T06:38:01;101169.16;;;28.96;50.35
64889;BME280;51386;53.082;8.816;2022-08-04T06:40:30;101161.50;;;29.03;49.95
64889;BME280;51386;53.082;8.816;2022-08-04T06:43:02;101164.94;;;29.14;50.17
64889;BME280;51386;53.082;8.816;2022-08-04T06:45:36;101154.78;;;29.24;49.40
64889;BME280;51386;53.082;8.816;2022-08-04T06:48:06;101155.19;;;29.36;49.50
64889;BME280;51386;53.082;8.816;2022-08-04T06:50:35;101162.19;;;29.42;49.01
64889;BME280;51386;53.082;8.816;2022-08-04T06:53:24;101158.25;;;29.54;48.94
64889;BME280;51386;53.082;8.816;2022-08-04T06:55:53;101157.56;;;29.67;48.83
64889;BME280;51386;53.082;8.816;2022-08-04T06:58:24;101144.09;;;29.80;48.40
64889;BME280;51386;53.082;8.816;2022-08-04T07:00:54;101145.28;;;29.93;47.68
64889;BME280;51386;53.082;8.816;2022-08-04T07:03:29;101141.91;;;30.01;47.37
64889;BME280;51386;53.082;8.816;2022-08-04T07:05:57;101148.34;;;30.05;47.71
64889;BME280;51386;53.082;8.816;2022-08-04T07:08:34;101142.84;;;30.10;46.92
64889;BME280;51386;53.082;8.816;2022-08-04T07:11:02;101141.63;;;30.21;47.41
64889;BME280;51386;53.082;8.816;2022-08-04T07:13:32;101133.84;;;30.33;46.53
64889;BME280;51386;53.082;8.816;2022-08-04T07:16:01;101130.84;;;30.48;46.38
64889;BME280;51386;53.082;8.816;2022-08-04T07:18:30;101134.44;;;30.62;46.85
64889;BME280;51386;53.082;8.816;2022-08-04T07:20:58;101128.72;;;30.77;46.48
64889;BME280;51386;53.082;8.816;2022-08-04T07:23:26;101129.59;;;30.92;46.36
64889;BME280;51386;53.082;8.816;2022-08-04T07:25:56;101120.53;;;31.10;45.55
64889;BME280;51386;53.082;8.816;2022-08-04T07:28:39;101128.72;;;31.23;45.64
64889;BME280;51386;53.082;8.816;2022-08-04T07:31:17;101126.78;;;31.37;44.66
64889;BME280;51386;53.082;8.816;2022-08-04T07:34:02;101123.47;;;31.54;43.93
64889;BME280;51386;53.082;8.816;2022-08-04T07:36:48;101136.63;;;31.74;44.12
64889;BME280;51386;53.082;8.816;2022-08-04T07:39:17;101124.81;;;31.92;43.56
64889;BME280;51386;53.082;8.816;2022-08-04T07:41:57;101125.47;;;32.12;42.87
64889;BME280;51386;53.082;8.816;2022-08-04T07:44:25;101131.03;;;32.29;42.44
64889;BME280;51386;53.082;8.816;2022-08-04T07:46:58;101117.53;;;32.46;42.30
64889;BME280;51386;53.082;8.816;2022-08-04T07:49:26;101124.22;;;32.62;42.11
64889;BME280;51386;53.082;8.816;2022-08-04T07:52:15;101126.09;;;32.75;41.36
64889;BME280;51386;53.082;8.816;2022-08-04T07:54:43;101124.19;;;32.84;40.44
64889;BME280;51386;53.082;8.816;2022-08-04T07:57:11;101115.66;;;33.08;40.00
64889;BME280;51386;53.082;8.816;2022-08-04T07:59:58;101116.88;;;33.50;39.85
64889;BME280;51386;53.082;8.816;2022-08-04T08:02:28;101121.81;;;33.95;38.55
64889;BME280;51386;53.082;8.816;2022-08-04T08:04:55;101117.34;;;34.25;37.57
64889;BME280;51386;53.082;8.816;2022-08-04T08:07:23;101113.72;;;34.50;37.26
64889;BME280;51386;53.082;8.816;2022-08-04T08:09:51;101116.59;;;34.80;35.76
64889;BME280;51386;53.082;8.816;2022-08-04T08:12:19;101117.16;;;34.94;35.13
64889;BME280;51386;53.082;8.816;2022-08-04T08:15:09;101102.00;;;35.05;34.92
64889;BME280;51386;53.082;8.816;2022-08-04T08:17:40;101111.75;;;35.23;34.21
64889;BME280;51386;53.082;8.816;2022-08-04T08:20:28;101107.50;;;35.63;33.45
64889;BME280;51386;53.082;8.816;2022-08-04T08:22:57;101109.84;;;35.94;32.82
64889;BME280;51386;53.082;8.816;2022-08-04T08:25:25;101104.44;;;36.39;31.82
64889;BME280;51386;53.082;8.816;2022-08-04T08:27:53;101105.47;;;36.91;31.98
64889;BME280;51386;53.082;8.816;2022-08-04T08:30:23;101097.72;;;37.42;30.97
64889;BME280;51386;53.082;8.816;2022-08-04T08:33:05;101091.47;;;38.36;29.57
64889;BME280;51386;53.082;8.816;2022-08-04T08:35:47;101092.84;;;39.40;28.66
64889;BME280;51386;53.082;8.816;2022-08-04T08:38:39;101083.78;;;39.74;27.00
64889;BME280;51386;53.082;8.816;2022-08-04T08:41:38;101084.16;;;39.92;26.75
64889;BME280;51386;53.082;8.816;2022-08-04T08:44:33;101086.19;;;40.14;25.85
64889;BME280;51386;53.082;8.816;2022-08-04T08:47:32;101082.38;;;40.64;25.26
64889;BME280;51386;53.082;8.816;2022-08-04T08:51:03;101085.41;;;41.04;24.68
64889;BME280;51386;53.082;8.816;2022-08-04T08:53:53;101078.88;;;41.42;23.98
64889;BME280;51386;53.082;8.816;2022-08-04T08:56:33;101074.19;;;42.09;23.70
64889;BME280;51386;53.082;8.816;2022-08-04T08:59:35;101079.47;;;41.84;24.03
64889;BME280;51386;53.082;8.816;2022-08-04T09:03:08;101076.81;;;41.65;23.60
64889;BME280;51386;53.082;8.816;2022-08-04T09:06:28;101071.72;;;41.67;23.40
64889;BME280;51386;53.082;8.816;2022-08-04T09:09:32;101069.22;;;41.29;23.31
64889;BME280;51386;53.082;8.816;2022-08-04T09:12:14;101072.50;;;41.38;23.64
64889;BME280;51386;53.082;8.816;2022-08-04T09:14:53;101064.47;;;41.59;22.25
64889;BME280;51386;53.082;8.816;2022-08-04T09:17:31;101060.78;;;41.48;22.54
64889;BME280;51386;53.082;8.816;2022-08-04T09:20:06;101063.38;;;41.34;22.87
64889;BME280;51386;53.082;8.816;2022-08-04T09:22:50;101068.13;;;41.10;23.16
64889;BME280;51386;53.082;8.816;2022-08-04T09:25:57;101065.34;;;41.33;22.46
64889;BME280;51386;53.082;8.816;2022-08-04T09:29:16;101057.88;;;42.00;22.43
64889;BME280;51386;53.082;8.816;2022-08-04T09:32:05;101067.00;;;42.85;21.33
64889;BME280;51386;53.082;8.816;2022-08-04T09:35:02;101069.44;;;43.51;20.69
64889;BME280;51386;53.082;8.816;2022-08-04T09:37:46;101070.00;;;43.99;20.57
64889;BME280;51386;53.082;8.816;2022-08-04T09:40:22;101067.59;;;43.87;19.98
64889;BME280;51386;53.082;8.816;2022-08-04T09:43:28;101061.22;;;43.76;20.04
64889;BME280;51386;53.082;8.816;2022-08-04T09:46:25;101061.41;;;44.57;18.91
64889;BME280;51386;53.082;8.816;2022-08-04T09:48:58;101068.50;;;45.29;18.58
64889;BME280;51386;53.082;8.816;2022-08-04T09:51:48;101058.09;;;46.19;17.79
64889;BME280;51386;53.082;8.816;2022-08-04T09:54:42;101045.81;;;47.09;16.92
64889;BME280;51386;53.082;8.816;2022-08-04T09:57:27;101051.41;;;47.43;16.30
64889;BME280;51386;53.082;8.816;2022-08-04T10:00:07;101053.75;;;47.75;16.26
64889;BME280;51386;53.082;8.816;2022-08-04T10:02:39;101045.66;;;47.84;15.82
64889;BME280;51386;53.082;8.816;2022-08-04T10:05:15;101042.13;;;47.80;15.80
64889;BME280;51386;53.082;8.816;2022-08-04T10:08:03;101035.81;;;48.02;15.09
64889;BME280;51386;53.082;8.816;2022-08-04T10:10:55;101039.81;;;48.28;15.02
64889;BME280;51386;53.082;8.816;2022-08-04T10:13:41;101031.69;;;48.60;14.99
64889;BME280;51386;53.082;8.816;2022-08-04T10:16:37;101031.81;;;48.53;14.80
64889;BME280;51386;53.082;8.816;2022-08-04T10:19:24;101038.25;;;48.73;14.31
64889;BME280;51386;53.082;8.816;2022-08-04T10:22:08;101025.44;;;48.96;14.93
64889;BME280;51386;53.082;8.816;2022-08-04T10:25:12;101026.09;;;49.03;13.81
64889;BME280;51386;53.082;8.816;2022-08-04T10:28:12;101018.38;;;49.30;14.11
64889;BME280;51386;53.082;8.816;2022-08-04T10:30:53;101021.63;;;49.06;13.95
64889;BME280;51386;53.082;8.816;2022-08-04T10:33:27;101014.03;;;49.06;14.02
64889;BME280;51386;53.082;8.816;2022-08-04T10:36:03;101009.44;;;49.16;13.21
64889;BME280;51386;53.082;8.816;2022-08-04T10:38:41;101008.72;;;49.12;13.28
64889;BME280;51386;53.082;8.816;2022-08-04T10:41:26;101002.03;;;49.06;13.07
64889;BME280;51386;53.082;8.816;2022-08-04T10:44:13;101006.72;;;48.69;14.04
64889;BME280;51386;53.082;8.816;2022-08-04T10:46:48;100995.69;;;48.39;13.84
64889;BME280;51386;53.082;8.816;2022-08-04T10:49:22;101002.00;;;47.67;14.08
64889;BME280;51386;53.082;8.816;2022-08-04T10:51:56;100989.38;;;46.91;14.61
64889;BME280;51386;53.082;8.816;2022-08-04T10:54:37;100991.34;;;46.05;14.96
64889;BME280;51386;53.082;8.816;2022-08-04T10:57:14;100991.00;;;45.17;16.18
64889;BME280;51386;53.082;8.816;2022-08-04T10:59:57;100984.38;;;44.33;16.70
64889;BME280;51386;53.082;8.816;2022-08-04T11:02:43;100988.25;;;43.75;17.00
64889;BME280;51386;53.082;8.816;2022-08-04T11:05:24;100984.84;;;43.21;17.59
64889;BME280;51386;53.082;8.816;2022-08-04T11:08:01;100985.72;;;42.67;17.86
64889;BME280;51386;53.082;8.816;2022-08-04T11:10:44;100984.38;;;42.06;18.79
64889;BME280;51386;53.082;8.816;2022-08-04T11:13:16;100990.47;;;41.49;19.20
64889;BME280;51386;53.082;8.816;2022-08-04T11:16:01;100989.25;;;41.16;20.39
64889;BME280;51386;53.082;8.816;2022-08-04T11:18:45;100987.00;;;40.96;20.14
64889;BME280;51386;53.082;8.816;2022-08-04T11:21:19;100995.56;;;40.87;20.55
64889;BME280;51386;53.082;8.816;2022-08-04T11:24:00;100989.88;;;40.80;20.49
64889;BME280;51386;53.082;8.816;2022-08-04T11:26:43;100987.03;;;40.73;21.21
64889;BME280;51386;53.082;8.816;2022-08-04T11:29:23;100983.91;;;40.75;21.20
64889;BME280;51386;53.082;8.816;2022-08-04T11:32:04;100980.44;;;40.81;21.04
64889;BME280;51386;53.082;8.816;2022-08-04T11:34:46;100987.88;;;40.77;20.99
64889;BME280;51386;53.082;8.816;2022-08-04T11:37:26;100979.66;;;41.07;20.57
64889;BME280;51386;53.082;8.816;2022-08-04T11:40:03;100978.72;;;41.59;20.29
64889;BME280;51386;53.082;8.816;2022-08-04T11:42:38;100972.69;;;41.83;20.00
64889;BME280;51386;53.082;8.816;2022-08-04T11:45:12;100977.22;;;41.65;20.15
64889;BME280;51386;53.082;8.816;2022-08-04T11:47:56;100986.38;;;41.36;20.69
64889;BME280;51386;53.082;8.816;2022-08-04T11:50:32;100983.53;;;41.02;20.65
64889;BME280;51386;53.082;8.816;2022-08-04T11:53:02;100996.44;;;40.95;21.09
64889;BME280;51386;53.082;8.816;2022-08-04T11:55:31;100993.34;;;40.74;21.18
64889;BME280;51386;53.082;8.816;2022-08-04T11:58:20;100988.47;;;40.64;20.79
64889;BME280;51386;53.082;8.816;2022-08-04T12:00:58;100989.03;;;40.50;21.17
64889;BME280;51386;53.082;8.816;2022-08-04T12:03:38;100982.72;;;40.27;21.37
64889;BME280;51386;53.082;8.816;2022-08-04T12:06:38;100986.22;;;40.24;21.27
64889;BME280;51386;53.082;8.816;2022-08-04T12:09:38;100977.56;;;40.25;21.99
64889;BME280;51386;53.082;8.816;2022-08-04T12:12:19;100993.06;;;40.11;21.69
64889;BME280;51386;53.082;8.816;2022-08-04T12:14:57;100994.91;;;40.26;21.20
64889;BME280;51386;53.082;8.816;2022-08-04T12:17:37;100996.91;;;40.74;20.80
64889;BME280;51386;53.082;8.816;2022-08-04T12:20:24;100984.94;;;41.49;20.41
64889;BME280;51386;53.082;8.816;2022-08-04T12:23:16;100991.31;;;42.26;19.90
64889;BME280;51386;53.082;8.816;2022-08-04T12:25:55;100991.13;;;43.07;19.05
64889;BME280;51386;53.082;8.816;2022-08-04T12:28:31;100980.91;;;43.25;18.40
64889;BME280;51386;53.082;8.816;2022-08-04T12:31:25;100987.31;;;43.29;18.55
64889;BME280;51386;53.082;8.816;2022-08-04T12:33:59;100986.06;;;43.23;17.79
64889;BME280;51386;53.082;8.816;2022-08-04T12:36:42;100983.16;;;42.95;17.31
64889;BME280;51386;53.082;8.816;2022-08-04T12:39:17;100995.06;;;43.02;17.92
64889;BME280;51386;53.082;8.816;2022-08-04T12:41:57;100994.50;;;43.48;17.37
64889;BME280;51386;53.082;8.816;2022-08-04T12:44:33;100985.09;;;43.81;17.04
64889;BME280;51386;53.082;8.816;2022-08-04T12:47:07;100973.91;;;43.63;17.39
64889;BME280;51386;53.082;8.816;2022-08-04T12:49:59;100985.66;;;43.25;17.95
64889;BME280;51386;53.082;8.816;2022-08-04T12:52:41;100988.63;;;42.88;18.16
64889;BME280;51386;53.082;8.816;2022-08-04T12:55:32;100980.78;;;42.97;18.21
64889;BME280;51386;53.082;8.816;2022-08-04T12:58:10;100993.50;;;43.05;18.04
64889;BME280;51386;53.082;8.816;2022-08-04T13:00:38;100987.91;;;42.98;17.75
64889;BME280;51386;53.082;8.816;2022-08-04T13:03:14;100983.03;;;42.81;17.42
64889;BME280;51386;53.082;8.816;2022-08-04T13:05:44;100987.59;;;42.56;17.83
64889;BME280;51386;53.082;8.816;2022-08-04T13:08:14;100981.81;;;42.27;17.45
64889;BME280;51386;53.082;8.816;2022-08-04T13:10:51;100980.41;;;42.04;17.91
64889;BME280;51386;53.082;8.816;2022-08-04T13:13:23;100982.22;;;41.89;17.29
64889;BME280;51386;53.082;8.816;2022-08-04T13:15:57;100977.75;;;41.74;17.73
64889;BME280;51386;53.082;8.816;2022-08-04T13:18:28;100972.47;;;41.65;18.55
64889;BME280;51386;53.082;8.816;2022-08-04T13:21:12;100974.75;;;41.56;18.77
64889;BME280;51386;53.082;8.816;2022-08-04T13:23:53;100975.22;;;41.62;18.23
64889;BME280;51386;53.082;8.816;2022-08-04T13:26:50;100971.69;;;41.65;18.67
64889;BME280;51386;53.082;8.816;2022-08-04T13:29:31;100966.09;;;41.58;18.11
64889;BME280;51386;53.082;8.816;2022-08-04T13:32:22;100971.53;;;41.51;18.92
64889;BME280;51386;53.082;8.816;2022-08-04T13:34:55;100968.31;;;41.45;18.86
64889;BME280;51386;53.082;8.816;2022-08-04T13:37:30;100962.63;;;41.35;18.82
64889;BME280;51386;53.082;8.816;2022-08-04T13:40:04;100964.16;;;41.29;19.19
64889;BME280;51386;53.082;8.816;2022-08-04T13:42:35;100964.16;;;41.29;18.86
64889;BME280;51386;53.082;8.816;2022-08-04T13:45:07;100958.53;;;41.25;20.14
64889;BME280;51386;53.082;8.816;2022-08-04T13:47:40;100950.56;;;41.20;20.61
64889;BME280;51386;53.082;8.816;2022-08-04T13:50:15;100951.25;;;41.10;21.86
64889;BME280;51386;53.082;8.816;2022-08-04T13:52:44;100953.47;;;40.97;22.80
64889;BME280;51386;53.082;8.816;2022-08-04T13:55:27;100966.13;;;40.72;24.52
64889;BME280;51386;53.082;8.816;2022-08-04T13:58:01;100963.81;;;40.51;25.49
64889;BME280;51386;53.082;8.816;2022-08-04T14:00:48;100962.09;;;40.21;26.13
64889;BME280;51386;53.082;8.816;2022-08-04T14:03:25;100977.84;;;39.98;26.63
64889;BME280;51386;53.082;8.816;2022-08-04T14:06:18;101007.94;;;39.64;27.48
64889;BME280;51386;53.082;8.816;2022-08-04T14:08:53;101000.34;;;39.42;27.97
64889;BME280;51386;53.082;8.816;2022-08-04T14:11:34;101001.81;;;39.17;29.42
64889;BME280;51386;53.082;8.816;2022-08-04T14:14:28;101021.31;;;38.93;29.96
64889;BME280;51386;53.082;8.816;2022-08-04T14:17:02;101026.31;;;38.72;30.41
64889;BME280;51386;53.082;8.816;2022-08-04T14:19:50;101020.88;;;38.44;31.33
64889;BME280;51386;53.082;8.816;2022-08-04T14:22:33;101041.53;;;38.22;31.49
64889;BME280;51386;53.082;8.816;2022-08-04T14:25:07;101088.25;;;38.07;31.62